createdAt,value
2019-01-21T00:01:28.697Z,79.97
2019-01-21T00:03:55.220Z,85.23
2019-01-21T00:06:21.618Z,86.33
2019-01-21T00:08:48.056Z,88.63
2019-01-21T00:11:14.465Z,74.00
2019-01-21T00:13:40.968Z,82.93
2019-01-21T00:16:07.372Z,80.00
2019-01-21T00:18:33.869Z,83.83
2019-01-21T00:21:00.580Z,102.70
2019-01-21T00:23:26.996Z,107.80
2019-01-21T00:25:53.389Z,92.07
2019-01-21T00:28:20.186Z,78.93
2019-01-21T00:30:46.729Z,84.60
2019-01-21T00:33:13.244Z,92.03
2019-01-21T00:35:39.845Z,109.03
2019-01-21T00:38:06.309Z,124.00
2019-01-21T00:40:32.713Z,94.93
2019-01-21T00:42:59.140Z,86.53
2019-01-21T00:45:25.536Z,84.93
2019-01-21T00:47:52.011Z,118.50
2019-01-21T00:50:18.589Z,96.13
2019-01-21T00:52:45.350Z,93.53
2019-01-21T00:55:12.399Z,104.30
2019-01-21T00:57:38.807Z,105.00
2019-01-21T01:00:11.105Z,102.30
2019-01-21T01:02:37.694Z,88.30
2019-01-21T01:05:06.623Z,87.80
2019-01-21T01:07:33.053Z,80.70
2019-01-21T01:09:59.468Z,82.57
2019-01-21T01:12:25.941Z,78.43
2019-01-21T01:14:52.438Z,80.60
2019-01-21T01:17:18.935Z,85.63
2019-01-21T01:19:45.411Z,99.90
2019-01-21T01:22:11.871Z,96.83
2019-01-21T01:24:38.279Z,92.37
2019-01-21T01:27:04.680Z,101.73
2019-01-21T01:29:31.305Z,88.73
2019-01-21T01:31:57.668Z,85.90
2019-01-21T01:34:24.065Z,86.20
2019-01-21T01:36:50.471Z,95.27
2019-01-21T01:39:16.966Z,82.47
2019-01-21T01:41:43.817Z,89.87
2019-01-21T01:44:10.444Z,86.40
2019-01-21T01:46:36.953Z,84.70
2019-01-21T01:49:03.448Z,76.83
2019-01-21T01:51:29.959Z,80.60
2019-01-21T01:53:56.443Z,79.20
2019-01-21T01:56:22.958Z,90.27
2019-01-21T01:58:49.350Z,86.60
2019-01-21T02:01:15.794Z,98.10
2019-01-21T02:03:42.498Z,140.17
2019-01-21T02:06:09.071Z,115.73
2019-01-21T02:08:35.462Z,118.63
2019-01-21T02:11:01.906Z,109.07
2019-01-21T02:13:28.329Z,115.60
2019-01-21T02:15:54.877Z,105.10
2019-01-21T02:18:21.336Z,100.83
2019-01-21T02:20:47.775Z,86.57
2019-01-21T02:23:15.160Z,93.50
2019-01-21T02:25:45.012Z,95.60
2019-01-21T02:28:16.533Z,95.63
2019-01-21T02:30:48.736Z,90.37
2019-01-21T02:33:21.104Z,87.63
2019-01-21T02:35:53.239Z,88.43
2019-01-21T02:38:25.466Z,97.20
2019-01-21T02:40:57.760Z,99.17
2019-01-21T02:43:31.043Z,98.97
2019-01-21T02:46:03.180Z,86.10
2019-01-21T02:48:35.410Z,105.43
2019-01-21T02:51:07.537Z,101.70
2019-01-21T02:53:39.690Z,100.80
2019-01-21T02:56:11.881Z,99.27
2019-01-21T02:58:44.010Z,97.80
2019-01-21T03:01:16.245Z,94.57
2019-01-21T03:03:48.840Z,98.70
2019-01-21T03:06:21.582Z,104.80
2019-01-21T03:08:53.857Z,93.23
2019-01-21T03:11:26.240Z,94.47
2019-01-21T03:13:58.833Z,101.47
2019-01-21T03:16:31.083Z,103.13
2019-01-21T03:19:03.246Z,101.87
2019-01-21T03:21:35.470Z,100.67
2019-01-21T03:24:07.629Z,105.20
2019-01-21T03:26:39.836Z,100.63
2019-01-21T03:29:12.000Z,103.77
2019-01-21T03:31:45.387Z,92.87
2019-01-21T03:34:17.734Z,96.13
2019-01-21T03:36:49.995Z,98.03
2019-01-21T03:39:23.264Z,94.93
2019-01-21T03:41:55.458Z,96.93
2019-01-21T03:44:30.316Z,98.67
2019-01-21T03:47:02.626Z,99.40
2019-01-21T03:49:34.922Z,94.73
2019-01-21T03:52:07.092Z,103.90
2019-01-21T03:54:33.776Z,93.47
2019-01-21T03:57:06.421Z,93.73
2019-01-21T03:59:38.576Z,86.60
2019-01-21T04:02:10.869Z,95.63
2019-01-21T04:04:43.115Z,99.37
2019-01-21T04:07:15.844Z,98.63
2019-01-21T04:09:48.137Z,95.93
2019-01-21T04:12:20.356Z,106.83
2019-01-21T04:14:52.500Z,116.23
2019-01-21T04:17:25.129Z,96.50
2019-01-21T04:19:57.506Z,104.60
2019-01-21T04:22:29.851Z,104.27
2019-01-21T04:25:02.203Z,104.23
2019-01-21T04:27:34.513Z,103.50
2019-01-21T04:30:06.761Z,105.13
2019-01-21T04:32:39.019Z,102.90
2019-01-21T04:35:11.251Z,102.70
2019-01-21T04:37:43.491Z,101.63
2019-01-21T04:40:15.781Z,100.77
2019-01-21T04:42:47.981Z,100.40
2019-01-21T04:45:20.275Z,105.33
2019-01-21T04:47:52.565Z,103.83
2019-01-21T04:50:24.912Z,116.00
2019-01-21T04:52:57.135Z,115.23
2019-01-21T04:55:29.383Z,102.33
2019-01-21T04:58:01.599Z,109.47
2019-01-21T05:00:34.154Z,103.97
2019-01-21T05:03:06.358Z,104.60
2019-01-21T05:05:38.638Z,99.80
2019-01-21T05:08:10.997Z,104.40
2019-01-21T05:10:45.078Z,92.70
2019-01-21T05:13:17.365Z,107.83
2019-01-21T05:15:49.524Z,102.77
2019-01-21T05:18:21.902Z,99.43
2019-01-21T05:20:54.152Z,111.20
2019-01-21T05:23:26.501Z,101.73
2019-01-21T05:25:58.832Z,109.90
2019-01-21T05:28:31.354Z,99.07
2019-01-21T05:31:03.655Z,107.97
2019-01-21T05:33:35.886Z,108.57
2019-01-21T05:36:08.159Z,105.77
2019-01-21T05:38:40.517Z,106.30
2019-01-21T05:41:12.825Z,104.17
2019-01-21T05:43:45.219Z,106.60
2019-01-21T05:46:17.432Z,99.07
2019-01-21T05:48:49.640Z,103.57
2019-01-21T05:51:21.866Z,94.53
2019-01-21T05:53:53.978Z,97.87
2019-01-21T05:56:26.322Z,96.60
2019-01-21T05:58:58.466Z,113.60
2019-01-21T06:01:30.835Z,99.37
2019-01-21T06:04:03.130Z,104.30
2019-01-21T06:06:35.379Z,96.30
2019-01-21T06:09:07.587Z,93.57
2019-01-21T06:11:39.823Z,102.27
2019-01-21T06:14:12.034Z,108.23
2019-01-21T06:16:44.256Z,103.57
2019-01-21T06:19:16.430Z,105.17
2019-01-21T06:21:48.574Z,112.77
2019-01-21T06:24:20.817Z,111.87
2019-01-21T06:26:52.969Z,103.07
2019-01-21T06:29:25.193Z,107.20
2019-01-21T06:31:57.514Z,98.73
2019-01-21T06:34:29.727Z,115.60
2019-01-21T06:37:01.825Z,109.70
2019-01-21T06:39:34.025Z,109.37
2019-01-21T06:42:06.252Z,109.73
2019-01-21T06:44:38.625Z,102.33
2019-01-21T06:47:10.773Z,114.50
2019-01-21T06:49:43.004Z,121.47
2019-01-21T06:52:15.234Z,115.63
2019-01-21T06:54:47.377Z,97.87
2019-01-21T06:57:19.826Z,97.60
2019-01-21T06:59:51.967Z,114.50
2019-01-21T07:02:24.249Z,101.33
2019-01-21T07:04:56.487Z,100.23
2019-01-21T07:07:28.652Z,116.90
2019-01-21T07:10:01.132Z,98.70
2019-01-21T07:12:33.367Z,93.80
2019-01-21T07:15:05.618Z,123.20
2019-01-21T07:17:38.267Z,106.97
2019-01-21T07:20:10.495Z,102.60
2019-01-21T07:22:42.733Z,131.83
2019-01-21T07:25:14.859Z,109.60
2019-01-21T07:27:47.135Z,144.57
2019-01-21T07:30:19.393Z,150.53
2019-01-21T07:32:51.742Z,128.57
2019-01-21T07:35:24.004Z,152.67
2019-01-21T07:37:56.278Z,115.43
2019-01-21T07:40:28.459Z,112.37
2019-01-21T07:43:00.717Z,185.33
2019-01-21T07:45:32.870Z,105.40
2019-01-21T07:48:05.309Z,116.63
2019-01-21T07:50:37.522Z,110.10
2019-01-21T07:53:09.654Z,99.70
2019-01-21T07:55:41.990Z,268.90
2019-01-21T07:58:14.145Z,154.97
2019-01-21T08:00:46.453Z,161.07
2019-01-21T08:03:18.732Z,117.73
2019-01-21T08:05:50.898Z,103.77
2019-01-21T08:08:23.199Z,104.63
2019-01-21T08:10:55.495Z,87.37
2019-01-21T08:13:27.696Z,100.40
2019-01-21T08:16:00.099Z,99.83
2019-01-21T08:18:32.313Z,108.30
2019-01-21T08:21:04.698Z,108.37
2019-01-21T08:23:37.006Z,102.67
2019-01-21T08:26:09.297Z,103.67
2019-01-21T08:28:41.727Z,95.47
2019-01-21T08:31:13.987Z,98.77
2019-01-21T08:33:46.066Z,99.90
2019-01-21T08:36:18.207Z,100.00
2019-01-21T08:38:50.316Z,100.17
2019-01-21T08:41:22.571Z,100.53
2019-01-21T08:43:54.693Z,89.40
2019-01-21T08:46:26.868Z,99.70
2019-01-21T08:48:58.989Z,96.27
2019-01-21T08:51:31.144Z,91.30
2019-01-21T08:54:03.295Z,84.40
2019-01-21T08:56:36.605Z,119.93
2019-01-21T08:59:09.820Z,97.50
2019-01-21T09:01:41.931Z,99.33
2019-01-21T09:04:14.038Z,91.60
2019-01-21T09:06:46.212Z,98.33
2019-01-21T09:09:18.309Z,91.30
2019-01-21T09:11:50.510Z,90.63
2019-01-21T09:14:22.629Z,100.67
2019-01-21T09:16:54.734Z,97.13
2019-01-21T09:19:26.894Z,101.80
2019-01-21T09:21:59.009Z,163.50
2019-01-21T09:24:31.381Z,114.40
2019-01-21T09:27:03.459Z,142.30
2019-01-21T09:29:35.553Z,135.50
2019-01-21T09:32:07.654Z,163.67
2019-01-21T09:34:39.752Z,95.10
2019-01-21T09:37:11.886Z,98.83
2019-01-21T09:39:44.012Z,100.20
2019-01-21T09:42:16.204Z,90.93
2019-01-21T09:44:48.313Z,101.23
2019-01-21T09:47:14.668Z,110.60
2019-01-21T09:49:43.822Z,116.57
2019-01-21T09:52:10.633Z,95.00
2019-01-21T09:54:37.124Z,100.10
2019-01-21T09:57:03.825Z,85.83
2019-01-21T09:59:30.730Z,102.10
2019-01-21T10:01:57.352Z,121.27
2019-01-21T10:04:29.573Z,86.60
2019-01-21T10:07:01.931Z,99.67
2019-01-21T10:09:34.062Z,114.87
2019-01-21T10:12:06.186Z,108.60
2019-01-21T10:14:38.356Z,103.73
2019-01-21T10:17:10.470Z,88.47
2019-01-21T10:19:42.569Z,98.23
2019-01-21T10:22:14.670Z,91.53
2019-01-21T10:24:46.846Z,86.30
2019-01-21T10:27:19.041Z,97.97
2019-01-21T10:29:51.211Z,91.67
2019-01-21T10:32:23.380Z,77.27
2019-01-21T10:34:55.502Z,82.27
2019-01-21T10:37:27.695Z,92.23
2019-01-21T10:40:00.004Z,74.87
2019-01-21T10:42:32.307Z,103.80
2019-01-21T10:45:05.607Z,85.20
2019-01-21T10:47:39.059Z,71.97
2019-01-21T10:50:11.241Z,81.10
2019-01-21T10:52:44.589Z,63.97
2019-01-21T10:55:16.918Z,74.67
2019-01-21T10:57:49.040Z,69.13
2019-01-21T11:00:21.253Z,64.97
2019-01-21T11:02:53.369Z,64.17
2019-01-21T11:05:25.577Z,63.13
2019-01-21T11:07:57.796Z,60.40
2019-01-21T11:10:29.949Z,74.80
2019-01-21T11:13:02.047Z,77.00
2019-01-21T11:15:34.213Z,70.53
2019-01-21T11:18:06.447Z,65.80
2019-01-21T11:20:38.513Z,65.73
2019-01-21T11:23:10.656Z,67.80
2019-01-21T11:25:42.788Z,62.23
2019-01-21T11:28:14.922Z,59.47
2019-01-21T11:30:47.115Z,68.27
2019-01-21T11:33:19.338Z,77.37
2019-01-21T11:35:51.462Z,73.53
2019-01-21T11:38:23.534Z,67.33
2019-01-21T11:40:55.798Z,69.70
2019-01-21T11:43:29.293Z,73.50
2019-01-21T11:46:02.053Z,64.93
2019-01-21T11:48:34.339Z,60.30
2019-01-21T11:51:06.701Z,65.27
2019-01-21T11:53:38.868Z,61.03
2019-01-21T11:56:11.070Z,72.33
2019-01-21T11:58:43.179Z,69.10
2019-01-21T12:01:15.273Z,59.03
2019-01-21T12:03:47.532Z,63.77
2019-01-21T12:06:17.105Z,62.93
2019-01-21T12:08:49.393Z,64.40
2019-01-21T12:11:21.502Z,59.20
2019-01-21T12:13:53.749Z,57.83
2019-01-21T12:16:25.890Z,56.70
2019-01-21T12:18:58.279Z,64.50
2019-01-21T12:21:30.425Z,46.27
2019-01-21T12:24:02.580Z,53.80
2019-01-21T12:26:36.471Z,53.97
2019-01-21T12:29:08.631Z,62.70
2019-01-21T12:31:40.715Z,59.87
2019-01-21T12:34:12.801Z,66.33
2019-01-21T12:36:44.997Z,62.57
2019-01-21T12:39:17.087Z,65.00
2019-01-21T12:41:49.268Z,67.30
2019-01-21T12:44:21.360Z,68.13
2019-01-21T12:46:53.500Z,71.57
2019-01-21T12:49:25.585Z,66.03
2019-01-21T12:51:57.725Z,57.87
2019-01-21T12:54:29.817Z,67.27
2019-01-21T12:57:01.964Z,64.20
2019-01-21T12:59:34.178Z,63.93
2019-01-21T13:02:06.338Z,71.33
2019-01-21T13:04:38.471Z,71.43
2019-01-21T13:07:10.606Z,57.10
2019-01-21T13:09:42.763Z,61.40
2019-01-21T13:12:15.077Z,64.10
2019-01-21T13:14:47.198Z,61.83
2019-01-21T13:17:19.354Z,51.87
2019-01-21T13:19:51.476Z,64.80
2019-01-21T13:22:23.707Z,258.20
2019-01-21T13:24:55.806Z,80.80
2019-01-21T13:27:27.926Z,78.93
2019-01-21T13:30:00.204Z,124.70
2019-01-21T13:32:32.331Z,128.43
2019-01-21T13:35:04.455Z,93.93
2019-01-21T13:37:36.666Z,96.60
2019-01-21T13:40:08.943Z,78.57
2019-01-21T13:42:42.988Z,78.63
2019-01-21T13:45:16.427Z,76.57
2019-01-21T13:47:48.572Z,76.83
2019-01-21T13:50:20.704Z,81.30
2019-01-21T13:52:52.892Z,76.60
2019-01-21T13:55:25.056Z,70.73
2019-01-21T13:57:57.199Z,65.57
2019-01-21T14:00:29.311Z,72.60
2019-01-21T14:03:01.626Z,62.23
2019-01-21T14:05:33.927Z,64.90
2019-01-21T14:08:06.083Z,64.40
2019-01-21T14:10:38.203Z,61.97
2019-01-21T14:13:10.319Z,49.73
2019-01-21T14:15:42.491Z,67.20
2019-01-21T14:18:14.745Z,64.27
2019-01-21T14:20:46.840Z,83.63
2019-01-21T14:23:25.179Z,75.70
2019-01-21T14:25:53.097Z,67.43
2019-01-21T14:28:25.273Z,73.93
2019-01-21T14:30:57.384Z,72.93
2019-01-21T14:33:29.536Z,105.53
2019-01-21T14:36:01.932Z,72.93
2019-01-21T14:38:34.048Z,71.07
2019-01-21T14:41:06.140Z,80.90
2019-01-21T14:43:39.373Z,96.17
2019-01-21T14:46:11.674Z,74.73
2019-01-21T14:48:44.694Z,82.40
2019-01-21T14:51:16.790Z,73.87
2019-01-21T14:53:50.036Z,75.47
2019-01-21T14:56:22.228Z,103.90
2019-01-21T14:58:54.429Z,64.57
2019-01-21T15:01:26.650Z,70.00
2019-01-21T15:03:58.748Z,60.17
2019-01-21T15:06:31.066Z,67.80
2019-01-21T15:09:03.433Z,100.43
2019-01-21T15:11:36.747Z,173.07
2019-01-21T15:14:08.868Z,68.93
2019-01-21T15:16:40.974Z,71.53
2019-01-21T15:19:13.311Z,79.17
2019-01-21T15:21:45.430Z,71.67
2019-01-21T15:24:17.588Z,99.93
2019-01-21T15:26:51.324Z,89.17
2019-01-21T15:29:23.887Z,108.83
2019-01-21T15:31:56.122Z,80.13
2019-01-21T15:34:28.365Z,79.27
2019-01-21T15:37:00.619Z,69.00
2019-01-21T15:39:32.910Z,74.97
2019-01-21T15:42:05.117Z,78.87
2019-01-21T15:44:37.279Z,77.37
2019-01-21T15:47:09.420Z,80.70
2019-01-21T15:49:41.627Z,78.10
2019-01-21T15:52:13.891Z,76.83
2019-01-21T15:54:46.037Z,85.07
2019-01-21T15:57:19.509Z,85.53
2019-01-21T15:59:51.885Z,84.53
2019-01-21T16:02:24.072Z,73.90
2019-01-21T16:04:56.319Z,73.23
2019-01-21T16:07:28.569Z,79.87
2019-01-21T16:10:00.737Z,78.33
2019-01-21T16:12:32.829Z,79.33
2019-01-21T16:15:05.108Z,78.30
2019-01-21T16:17:37.239Z,76.83
2019-01-21T16:20:09.407Z,76.23
2019-01-21T16:22:41.596Z,70.00
2019-01-21T16:25:13.815Z,68.13
2019-01-21T16:27:45.935Z,70.57
2019-01-21T16:30:18.168Z,74.63
2019-01-21T16:32:50.274Z,82.67
2019-01-21T16:35:22.585Z,173.37
2019-01-21T16:37:55.023Z,123.30
2019-01-21T16:40:27.844Z,73.23
2019-01-21T16:42:54.391Z,163.03
2019-01-21T16:45:20.769Z,87.83
2019-01-21T16:47:47.175Z,78.53
2019-01-21T16:50:13.534Z,75.93
2019-01-21T16:52:40.007Z,92.20
2019-01-21T16:55:07.199Z,99.33
2019-01-21T16:57:33.619Z,75.23
2019-01-21T17:00:00.052Z,71.53
2019-01-21T17:02:26.594Z,75.50
2019-01-21T17:04:53.013Z,75.77
2019-01-21T17:07:19.542Z,87.80
2019-01-21T17:09:45.903Z,72.23
2019-01-21T17:12:12.280Z,69.23
2019-01-21T17:14:38.713Z,60.23
2019-01-21T17:17:05.080Z,64.30
2019-01-21T17:19:31.488Z,63.23
2019-01-21T17:21:57.949Z,71.17
2019-01-21T17:24:24.411Z,68.67
2019-01-21T17:26:51.298Z,63.97
2019-01-21T17:29:17.749Z,66.47
2019-01-21T17:31:44.102Z,65.00
2019-01-21T17:34:10.454Z,78.80
2019-01-21T17:36:37.172Z,60.47
2019-01-21T17:39:06.050Z,64.23
2019-01-21T17:41:33.555Z,73.50
2019-01-21T17:43:59.976Z,62.17
2019-01-21T17:46:26.340Z,75.43
2019-01-21T17:48:57.110Z,85.03
2019-01-21T17:51:24.041Z,71.67
2019-01-21T17:53:51.447Z,62.57
2019-01-21T17:56:18.140Z,62.27
2019-01-21T17:58:44.534Z,63.03
2019-01-21T18:01:10.952Z,65.10
2019-01-21T18:03:37.373Z,50.47
2019-01-21T18:06:04.962Z,69.50
2019-01-21T18:08:31.388Z,62.77
2019-01-21T18:10:57.804Z,58.07
2019-01-21T18:13:24.323Z,53.73
2019-01-21T18:15:50.913Z,62.00
2019-01-21T18:18:17.508Z,73.03
2019-01-21T18:20:44.023Z,63.57
2019-01-21T18:23:10.813Z,68.67
2019-01-21T18:25:37.431Z,67.97
2019-01-21T18:28:04.073Z,62.10
2019-01-21T18:30:30.692Z,67.53
2019-01-21T18:32:57.089Z,66.30
2019-01-21T18:35:23.688Z,57.90
2019-01-21T18:37:50.108Z,70.50
2019-01-21T18:40:19.431Z,71.00
2019-01-21T18:42:46.082Z,59.77
2019-01-21T18:45:18.238Z,60.50
2019-01-21T18:47:45.078Z,57.43
2019-01-21T18:50:11.567Z,51.37
2019-01-21T18:52:38.095Z,49.07
2019-01-21T18:55:07.199Z,63.50
2019-01-21T18:57:34.627Z,63.53
2019-01-21T19:00:08.143Z,61.33
2019-01-21T19:02:34.594Z,62.73
2019-01-21T19:05:01.240Z,67.40
2019-01-21T19:07:27.579Z,55.80
2019-01-21T19:09:53.931Z,57.30
2019-01-21T19:12:20.363Z,62.00
2019-01-21T19:14:46.872Z,67.37
2019-01-21T19:17:13.389Z,64.10
2019-01-21T19:19:41.296Z,54.80
2019-01-21T19:22:07.782Z,55.07
2019-01-21T19:24:34.277Z,51.13
2019-01-21T19:27:02.058Z,66.33
2019-01-21T19:29:28.509Z,53.70
2019-01-21T19:31:54.953Z,86.73
2019-01-21T19:34:21.581Z,47.37
2019-01-21T19:36:47.940Z,45.77
2019-01-21T19:39:14.597Z,45.23
2019-01-21T19:41:41.233Z,49.30
2019-01-21T19:44:08.751Z,41.37
2019-01-21T19:46:35.223Z,41.43
2019-01-21T19:49:01.728Z,42.63
2019-01-21T19:51:28.324Z,47.63
2019-01-21T19:53:54.889Z,41.57
2019-01-21T19:56:21.301Z,51.70
2019-01-21T19:58:47.747Z,53.93
2019-01-21T20:01:14.251Z,47.80
2019-01-21T20:03:40.768Z,48.03
2019-01-21T20:06:07.186Z,44.37
2019-01-21T20:08:33.603Z,51.40
2019-01-21T20:10:59.953Z,45.87
2019-01-21T20:13:26.351Z,51.70
2019-01-21T20:15:52.740Z,50.93
2019-01-21T20:18:19.122Z,47.23
2019-01-21T20:20:45.649Z,51.53
2019-01-21T20:23:12.056Z,50.07
2019-01-21T20:25:38.407Z,49.33
2019-01-21T20:28:04.865Z,47.03
2019-01-21T20:30:31.252Z,46.60
2019-01-21T20:32:57.644Z,49.53
2019-01-21T20:35:24.018Z,48.73
2019-01-21T20:37:50.397Z,51.07
2019-01-21T20:40:22.178Z,52.03
2019-01-21T20:42:48.640Z,65.13
2019-01-21T20:45:15.761Z,51.00
2019-01-21T20:47:42.283Z,59.70
2019-01-21T20:50:14.340Z,49.20
2019-01-21T20:52:40.880Z,50.10
2019-01-21T20:55:09.936Z,53.90
2019-01-21T20:57:37.036Z,46.13
2019-01-21T21:00:09.507Z,46.90
2019-01-21T21:02:36.637Z,41.93
2019-01-21T21:05:04.959Z,45.47
2019-01-21T21:07:32.669Z,47.83
2019-01-21T21:09:59.809Z,43.50
2019-01-21T21:12:26.727Z,38.57
2019-01-21T21:14:53.401Z,35.43
2019-01-21T21:17:20.122Z,32.77
2019-01-21T21:19:47.049Z,36.60
2019-01-21T21:22:14.025Z,36.03
2019-01-21T21:24:41.375Z,39.27
2019-01-21T21:27:08.420Z,33.40
2019-01-21T21:29:35.197Z,29.70
2019-01-21T21:32:04.358Z,30.27
2019-01-21T21:34:33.068Z,38.63
2019-01-21T21:36:59.926Z,38.23
2019-01-21T21:39:26.612Z,38.23
2019-01-21T21:41:53.568Z,39.10
2019-01-21T21:44:21.333Z,30.57
2019-01-21T21:46:49.335Z,30.80
2019-01-21T21:49:17.295Z,39.33
2019-01-21T21:51:44.112Z,38.93
2019-01-21T21:54:11.024Z,35.37
2019-01-21T21:56:37.923Z,38.03
2019-01-21T21:59:04.630Z,32.03
2019-01-21T22:01:31.414Z,34.37
2019-01-21T22:03:58.179Z,32.30
2019-01-21T22:06:25.013Z,31.83
2019-01-21T22:08:53.367Z,34.30
2019-01-21T22:11:20.108Z,36.57
2019-01-21T22:13:46.982Z,38.70
2019-01-21T22:16:14.002Z,33.13
2019-01-21T22:18:41.030Z,34.37
2019-01-21T22:21:07.764Z,37.43
2019-01-21T22:23:34.543Z,32.80
2019-01-21T22:26:01.417Z,36.70
2019-01-21T22:28:28.024Z,34.87
2019-01-21T22:30:55.071Z,37.90
2019-01-21T22:33:21.476Z,34.80
2019-01-21T22:35:47.879Z,47.83
2019-01-21T22:38:14.292Z,53.60
2019-01-21T22:40:40.753Z,54.23
2019-01-21T22:43:07.269Z,41.47
2019-01-21T22:45:33.740Z,42.30
2019-01-21T22:48:00.202Z,38.67
2019-01-21T22:50:26.675Z,44.43
2019-01-21T22:52:53.038Z,47.57
2019-01-21T22:55:19.556Z,45.93
2019-01-21T22:57:46.004Z,53.87
2019-01-21T23:00:18.254Z,51.60
2019-01-21T23:02:45.414Z,42.23
2019-01-21T23:05:11.825Z,41.00
2019-01-21T23:07:38.302Z,40.40
2019-01-21T23:10:06.841Z,40.13
2019-01-21T23:12:33.476Z,41.63
2019-01-21T23:14:59.813Z,42.87
2019-01-21T23:17:26.501Z,46.23
2019-01-21T23:19:53.136Z,45.70
2019-01-21T23:22:19.608Z,45.20
2019-01-21T23:24:45.993Z,49.13
2019-01-21T23:27:12.661Z,46.87
2019-01-21T23:29:39.075Z,44.50
2019-01-21T23:32:05.471Z,42.93
2019-01-21T23:34:32.133Z,39.80
2019-01-21T23:36:58.647Z,48.10
2019-01-21T23:39:25.121Z,40.43
2019-01-21T23:41:51.669Z,47.43
2019-01-21T23:44:18.279Z,51.73
2019-01-21T23:46:44.705Z,46.67
2019-01-21T23:49:11.484Z,51.73
2019-01-21T23:51:38.063Z,54.10
2019-01-21T23:54:04.566Z,49.97
2019-01-21T23:56:32.275Z,44.40
2019-01-21T23:58:58.917Z,44.77
